Time;durP1;ratioP1;P1;durP2;ratioP2;P2;SDS_P1;SDS_P2;PMS_P1;PMS_P2;Temp;Humidity;BMP_temperature;BMP_pressure;BME280_temperature;BME280_humidity;BME280_pressure;Samples;Min_cycle;Max_cycle;Signal;HPM_P1;HPM_P2
2024/01/12 00:02:24;;;;;;;34.95;14.23;;;;;;;;;;4963449;29;20059;-58
2024/01/12 00:04:50;;;;;;;35.17;14.33;;;;;;;;;;4968190;29;20066;-60
2024/01/12 00:07:15;;;;;;;36.37;14.73;;;;;;;;;;4963131;29;20027;-60
2024/01/12 00:09:43;;;;;;;42.93;14.97;;;;;;;;;;4958498;29;20027;-60
2024/01/12 00:12:09;;;;;;;45.78;15.43;;;;;;;;;;4962224;29;20285;-60
2024/01/12 00:14:34;;;;;;;41.97;13.53;;;;;;;;;;4958980;29;20047;-60
2024/01/12 00:16:59;;;;;;;35.90;15.03;;;;;;;;;;4963915;29;20101;-60
2024/01/12 00:19:25;;;;;;;33.05;11.57;;;;;;;;;;4958768;29;20044;-60
2024/01/12 00:21:52;;;;;;;46.20;14.63;;;;;;;;;;4958337;29;20035;-60
2024/01/12 00:24:18;;;;;;;44.92;14.77;;;;;;;;;;4958666;29;20036;-60
2024/01/12 00:26:45;;;;;;;35.40;13.23;;;;;;;;;;4964470;29;20094;-61
2024/01/12 00:29:10;;;;;;;38.25;14.30;;;;;;;;;;4969712;29;20293;-61
2024/01/12 00:31:35;;;;;;;40.03;14.00;;;;;;;;;;4962030;29;20028;-60
2024/01/12 00:34:01;;;;;;;39.27;13.37;;;;;;;;;;4960342;29;20024;-60
2024/01/12 00:36:27;;;;;;;43.20;13.00;;;;;;;;;;4957317;29;20032;-60
2024/01/12 00:38:52;;;;;;;45.43;14.67;;;;;;;;;;4958342;29;20070;-59
2024/01/12 00:41:18;;;;;;;35.80;13.23;;;;;;;;;;4948709;29;20061;-60
2024/01/12 00:43:43;;;;;;;41.67;14.27;;;;;;;;;;4964233;29;20273;-60
2024/01/12 00:46:09;;;;;;;32.50;11.97;;;;;;;;;;4963520;29;20047;-60
2024/01/12 00:48:34;;;;;;;35.57;12.40;;;;;;;;;;4948445;29;20042;-60
2024/01/12 00:51:00;;;;;;;41.47;15.17;;;;;;;;;;4958067;29;20039;-60
2024/01/12 00:53:25;;;;;;;36.83;13.80;;;;;;;;;;4968975;29;20091;-59
2024/01/12 00:55:51;;;;;;;39.00;15.70;;;;;;;;;;4957911;29;20103;-60
2024/01/12 00:58:16;;;;;;;40.80;13.93;;;;;;;;;;4965689;29;20043;-60
2024/01/12 01:00:42;;;;;;;35.67;13.40;;;;;;;;;;4957762;29;20267;-60
2024/01/12 01:03:07;;;;;;;34.33;13.27;;;;;;;;;;4966646;29;20031;-59
2024/01/12 01:05:33;;;;;;;31.13;12.97;;;;;;;;;;4961729;29;20032;-60
2024/01/12 01:07:58;;;;;;;43.33;14.33;;;;;;;;;;4965223;29;20270;-60
2024/01/12 01:10:24;;;;;;;30.20;12.73;;;;;;;;;;4957723;29;20035;-60
2024/01/12 01:12:49;;;;;;;33.13;10.37;;;;;;;;;;4963731;29;20095;-59
2024/01/12 01:15:15;;;;;;;38.63;13.57;;;;;;;;;;4957682;29;20265;-61
2024/01/12 01:17:41;;;;;;;38.30;12.87;;;;;;;;;;4961659;29;20031;-60
2024/01/12 01:20:07;;;;;;;35.88;12.75;;;;;;;;;;4957738;29;20028;-61
2024/01/12 01:22:34;;;;;;;34.28;12.75;;;;;;;;;;4961591;29;20092;-60
2024/01/12 01:25:00;;;;;;;36.45;12.68;;;;;;;;;;4957413;29;20103;-60
2024/01/12 01:27:25;;;;;;;43.75;12.95;;;;;;;;;;4957467;29;20120;-60
2024/01/12 01:29:51;;;;;;;33.92;11.35;;;;;;;;;;4957322;29;20043;-60
2024/01/12 01:32:16;;;;;;;36.63;11.20;;;;;;;;;;4958994;29;20034;-61
2024/01/12 01:34:42;;;;;;;30.60;11.10;;;;;;;;;;4957362;29;20062;-59
2024/01/12 01:37:07;;;;;;;38.23;10.90;;;;;;;;;;4957339;29;20039;-60
2024/01/12 01:39:33;;;;;;;28.53;10.03;;;;;;;;;;4957176;29;20266;-60
2024/01/12 01:41:58;;;;;;;32.40;10.30;;;;;;;;;;4962427;29;20031;-59
2024/01/12 01:44:25;;;;;;;31.67;11.50;;;;;;;;;;4962958;29;20178;-60
2024/01/12 01:46:51;;;;;;;37.22;10.77;;;;;;;;;;4945482;28;20032;-59
2024/01/12 01:49:17;;;;;;;28.95;10.00;;;;;;;;;;4957480;29;20066;-61
2024/01/12 01:51:43;;;;;;;27.63;11.07;;;;;;;;;;4960024;29;20031;-60
2024/01/12 01:54:08;;;;;;;44.97;11.40;;;;;;;;;;4962463;29;20039;-60
2024/01/12 01:56:36;;;;;;;29.47;9.43;;;;;;;;;;4957103;29;20034;-60
2024/01/12 01:59:01;;;;;;;29.65;10.40;;;;;;;;;;4959074;29;20273;-60
2024/01/12 02:01:27;;;;;;;29.10;10.50;;;;;;;;;;4957893;29;20099;-60
2024/01/12 02:03:52;;;;;;;30.50;9.90;;;;;;;;;;4945585;29;20112;-60
2024/01/12 02:06:18;;;;;;;33.92;9.98;;;;;;;;;;4967621;29;20039;-60
2024/01/12 02:08:44;;;;;;;27.10;9.77;;;;;;;;;;4956204;29;20054;-61
2024/01/12 02:11:10;;;;;;;28.88;8.68;;;;;;;;;;4957036;29;20032;-59
2024/01/12 02:13:35;;;;;;;30.10;9.73;;;;;;;;;;4960918;29;20039;-61
2024/01/12 02:16:00;;;;;;;26.07;7.70;;;;;;;;;;4963301;29;20024;-61
2024/01/12 02:18:26;;;;;;;35.17;10.15;;;;;;;;;;4957464;29;20467;-60
2024/01/12 02:20:53;;;;;;;30.57;9.23;;;;;;;;;;4956703;29;20070;-59
2024/01/12 02:23:19;;;;;;;43.75;9.02;;;;;;;;;;4958906;29;20258;-60
2024/01/12 02:25:45;;;;;;;29.83;9.87;;;;;;;;;;4960747;29;20109;-60
2024/01/12 02:28:11;;;;;;;24.27;8.80;;;;;;;;;;4957642;29;20038;-61
2024/01/12 02:30:36;;;;;;;26.07;8.67;;;;;;;;;;4956729;29;20039;-61
2024/01/12 02:33:05;;;;;;;28.83;8.68;;;;;;;;;;4955159;29;20032;-60
2024/01/12 02:35:31;;;;;;;23.17;9.15;;;;;;;;;;4956434;29;20032;-60
2024/01/12 02:37:57;;;;;;;25.07;7.73;;;;;;;;;;4942320;29;20027;-60
2024/01/12 02:40:22;;;;;;;42.37;10.47;;;;;;;;;;4956506;29;20281;-60
2024/01/12 02:42:48;;;;;;;40.37;9.63;;;;;;;;;;4967186;29;20087;-60
2024/01/12 02:45:13;;;;;;;32.07;9.03;;;;;;;;;;4956735;29;20046;-59
2024/01/12 02:47:39;;;;;;;26.10;8.63;;;;;;;;;;4957138;29;20059;-60
2024/01/12 02:50:04;;;;;;;33.07;9.67;;;;;;;;;;4967077;29;20032;-60
2024/01/12 02:52:35;;;;;;;34.70;9.43;;;;;;;;;;4964748;29;20042;-60
2024/01/12 02:55:00;;;;;;;27.15;8.98;;;;;;;;;;4945500;29;20039;-60
2024/01/12 02:57:26;;;;;;;32.45;9.38;;;;;;;;;;4961356;29;20036;-60
2024/01/12 02:59:52;;;;;;;32.63;9.47;;;;;;;;;;4948358;29;20031;-60
2024/01/12 03:02:17;;;;;;;32.43;8.87;;;;;;;;;;4965796;29;20094;-60
2024/01/12 03:04:43;;;;;;;25.63;8.97;;;;;;;;;;4960082;29;20039;-61
2024/01/12 03:07:08;;;;;;;20.37;6.17;;;;;;;;;;4960124;29;20269;-60
2024/01/12 03:09:34;;;;;;;24.77;8.10;;;;;;;;;;4968348;29;20056;-59
2024/01/12 03:11:59;;;;;;;33.57;9.63;;;;;;;;;;4946861;29;20054;-60
2024/01/12 03:14:25;;;;;;;40.15;8.55;;;;;;;;;;4966492;29;20035;-60
2024/01/12 03:16:51;;;;;;;34.95;8.30;;;;;;;;;;4960054;29;20052;-60
2024/01/12 03:19:16;;;;;;;25.95;8.30;;;;;;;;;;4962882;29;20062;-58
2024/01/12 03:21:41;;;;;;;22.93;8.40;;;;;;;;;;4959562;29;20091;-59
2024/01/12 03:24:07;;;;;;;30.43;8.13;;;;;;;;;;4959911;29;20042;-59
2024/01/12 03:26:36;;;;;;;39.03;8.32;;;;;;;;;;4960004;29;20095;-60
2024/01/12 03:29:03;;;;;;;33.28;9.00;;;;;;;;;;4959396;29;20087;-60
2024/01/12 03:31:28;;;;;;;22.50;7.07;;;;;;;;;;4959871;29;20091;-59
2024/01/12 03:33:53;;;;;;;27.20;6.87;;;;;;;;;;4962547;29;20042;-60
2024/01/12 03:36:19;;;;;;;23.13;7.33;;;;;;;;;;4959649;29;20271;-60
2024/01/12 03:38:45;;;;;;;31.80;7.83;;;;;;;;;;4965544;29;20094;-60
2024/01/12 03:41:10;;;;;;;34.33;8.47;;;;;;;;;;4953623;29;20032;-59
2024/01/12 03:43:35;;;;;;;24.70;7.33;;;;;;;;;;4960392;29;20277;-59
2024/01/12 03:46:01;;;;;;;29.10;7.37;;;;;;;;;;4959534;29;20051;-59
2024/01/12 03:48:27;;;;;;;25.47;7.77;;;;;;;;;;4958987;29;20054;-61
2024/01/12 03:50:53;;;;;;;30.10;7.60;;;;;;;;;;4942573;29;20294;-59
2024/01/12 03:53:18;;;;;;;25.97;7.33;;;;;;;;;;4970655;29;20039;-58
2024/01/12 03:55:44;;;;;;;22.02;6.30;;;;;;;;;;4959156;29;20032;-58
2024/01/12 03:58:09;;;;;;;29.80;7.43;;;;;;;;;;4962688;29;20059;-58
2024/01/12 04:00:35;;;;;;;25.52;6.90;;;;;;;;;;4964244;29;20063;-59
2024/01/12 04:03:00;;;;;;;25.97;6.93;;;;;;;;;;4968399;29;20041;-60
2024/01/12 04:05:26;;;;;;;28.02;7.15;;;;;;;;;;4958874;29;20032;-59
2024/01/12 04:07:51;;;;;;;35.03;9.03;;;;;;;;;;4959463;29;20040;-60
2024/01/12 04:10:17;;;;;;;30.50;8.50;;;;;;;;;;4964574;28;20063;-59
2024/01/12 04:12:42;;;;;;;28.45;8.05;;;;;;;;;;4970030;29;20098;-60
2024/01/12 04:15:08;;;;;;;28.67;7.23;;;;;;;;;;4959120;29;20040;-59
2024/01/12 04:17:34;;;;;;;23.13;7.32;;;;;;;;;;4958889;29;20034;-61
2024/01/12 04:19:59;;;;;;;28.30;6.97;;;;;;;;;;4958614;29;20035;-60
2024/01/12 04:22:25;;;;;;;28.70;7.20;;;;;;;;;;4964089;29;20042;-58
2024/01/12 04:24:51;;;;;;;36.10;7.70;;;;;;;;;;4965600;29;20040;-59
2024/01/12 04:27:16;;;;;;;27.00;6.80;;;;;;;;;;4959505;29;20051;-60
2024/01/12 04:29:42;;;;;;;27.23;8.70;;;;;;;;;;4949689;29;20289;-58
2024/01/12 04:32:07;;;;;;;19.50;7.50;;;;;;;;;;4960568;29;20125;-60
2024/01/12 04:34:34;;;;;;;18.67;6.70;;;;;;;;;;4965721;29;20036;-60
2024/01/12 04:36:59;;;;;;;25.25;6.53;;;;;;;;;;4958295;29;20087;-59
2024/01/12 04:39:25;;;;;;;27.20;7.43;;;;;;;;;;4963128;29;20042;-59
2024/01/12 04:41:51;;;;;;;36.63;8.50;;;;;;;;;;4952621;29;20032;-59
2024/01/12 04:44:16;;;;;;;27.07;7.60;;;;;;;;;;4965512;29;20040;-58
2024/01/12 04:46:42;;;;;;;24.00;6.43;;;;;;;;;;4958303;29;20032;-59
2024/01/12 04:49:08;;;;;;;24.65;8.00;;;;;;;;;;4966828;29;20039;-59
2024/01/12 04:51:33;;;;;;;24.97;6.90;;;;;;;;;;4962872;29;20032;-59
2024/01/12 04:53:58;;;;;;;24.53;6.37;;;;;;;;;;4962389;29;20036;-60
2024/01/12 04:56:24;;;;;;;27.77;5.80;;;;;;;;;;4958083;29;20035;-59
2024/01/12 04:58:50;;;;;;;18.17;5.90;;;;;;;;;;4958082;29;20036;-60
2024/01/12 05:01:16;;;;;;;23.60;6.70;;;;;;;;;;4957107;29;20055;-59
2024/01/12 05:03:42;;;;;;;26.57;5.60;;;;;;;;;;4959543;29;20302;-60
2024/01/12 05:06:09;;;;;;;17.42;6.38;;;;;;;;;;4957916;29;20047;-58
2024/01/12 05:08:34;;;;;;;17.90;5.18;;;;;;;;;;4957876;29;20040;-60
2024/01/12 05:10:59;;;;;;;18.30;5.77;;;;;;;;;;4967627;29;20031;-58
2024/01/12 05:13:25;;;;;;;22.08;5.57;;;;;;;;;;4941130;29;20038;-59
2024/01/12 05:15:51;;;;;;;14.43;5.67;;;;;;;;;;4957456;29;20054;-58
2024/01/12 05:18:16;;;;;;;16.90;4.83;;;;;;;;;;4958050;29;20266;-60
2024/01/12 05:20:42;;;;;;;13.23;6.07;;;;;;;;;;4950798;29;20034;-58
2024/01/12 05:23:07;;;;;;;18.10;5.37;;;;;;;;;;4972740;29;20269;-60
2024/01/12 05:25:33;;;;;;;20.67;6.17;;;;;;;;;;4959213;29;20031;-60
2024/01/12 05:27:58;;;;;;;22.23;5.50;;;;;;;;;;4957666;29;20035;-60
2024/01/12 05:30:24;;;;;;;16.15;5.15;;;;;;;;;;4963721;29;20036;-57
2024/01/12 05:32:49;;;;;;;14.93;6.57;;;;;;;;;;4963543;29;20099;-58
2024/01/12 05:35:15;;;;;;;20.23;5.33;;;;;;;;;;4958638;29;20024;-58
2024/01/12 05:37:40;;;;;;;19.93;5.77;;;;;;;;;;4957444;29;20063;-59
2024/01/12 05:40:06;;;;;;;11.93;4.13;;;;;;;;;;4959816;29;20270;-60
2024/01/12 05:42:31;;;;;;;21.52;4.03;;;;;;;;;;4961272;29;20027;-58
2024/01/12 05:44:57;;;;;;;14.30;3.93;;;;;;;;;;4958748;29;20067;-59
2024/01/12 05:47:22;;;;;;;14.93;4.00;;;;;;;;;;4957307;29;20040;-60
2024/01/12 05:49:48;;;;;;;14.13;4.10;;;;;;;;;;4957146;29;20063;-57
2024/01/12 05:52:13;;;;;;;16.83;4.55;;;;;;;;;;4957514;29;20035;-57
2024/01/12 05:54:39;;;;;;;16.47;5.10;;;;;;;;;;4958672;29;20046;-60
2024/01/12 05:57:04;;;;;;;24.83;6.30;;;;;;;;;;4940182;29;20052;-60
2024/01/12 05:59:30;;;;;;;15.47;4.60;;;;;;;;;;4958291;29;20031;-58
2024/01/12 06:01:55;;;;;;;17.33;4.50;;;;;;;;;;4963379;29;20102;-60
2024/01/12 06:04:21;;;;;;;18.50;4.60;;;;;;;;;;4962642;29;20064;-59
2024/01/12 06:06:48;;;;;;;21.00;4.90;;;;;;;;;;4957121;29;20034;-58
2024/01/12 06:09:13;;;;;;;13.70;4.90;;;;;;;;;;4956958;29;20293;-58
2024/01/12 06:11:42;;;;;;;17.70;4.10;;;;;;;;;;4963035;29;20041;-60
2024/01/12 06:14:08;;;;;;;16.35;4.65;;;;;;;;;;4959636;29;20059;-58
2024/01/12 06:16:33;;;;;;;16.30;5.57;;;;;;;;;;4956424;29;20055;-59
2024/01/12 06:18:59;;;;;;;19.93;5.17;;;;;;;;;;4961194;29;20031;-59
2024/01/12 06:21:24;;;;;;;13.90;5.00;;;;;;;;;;4959854;29;20494;-60
2024/01/12 06:23:50;;;;;;;16.83;5.40;;;;;;;;;;4965048;29;20027;-59
2024/01/12 06:26:16;;;;;;;20.43;5.57;;;;;;;;;;4967794;29;20101;-59
2024/01/12 06:28:41;;;;;;;10.23;3.80;;;;;;;;;;4969273;29;20055;-58
2024/01/12 06:31:07;;;;;;;13.33;4.17;;;;;;;;;;4969617;29;20417;-58
2024/01/12 06:33:34;;;;;;;17.93;4.53;;;;;;;;;;4965837;28;20034;-58
2024/01/12 06:35:59;;;;;;;19.48;4.30;;;;;;;;;;4967200;29;20039;-59
2024/01/12 06:38:25;;;;;;;19.73;5.22;;;;;;;;;;4962292;29;20039;-60
2024/01/12 06:40:51;;;;;;;11.90;4.83;;;;;;;;;;4968581;29;20039;-59
2024/01/12 06:43:17;;;;;;;13.60;4.30;;;;;;;;;;4963014;29;20028;-58
2024/01/12 06:45:43;;;;;;;16.40;4.13;;;;;;;;;;4959997;29;20087;-59
2024/01/12 06:48:10;;;;;;;16.30;5.47;;;;;;;;;;4960367;29;20028;-60
2024/01/12 06:50:35;;;;;;;12.85;4.30;;;;;;;;;;4966989;29;20023;-59
2024/01/12 06:53:01;;;;;;;24.50;5.00;;;;;;;;;;4959504;29;20036;-57
2024/01/12 06:55:27;;;;;;;20.52;4.95;;;;;;;;;;4960292;29;20040;-57
2024/01/12 06:57:52;;;;;;;16.47;5.43;;;;;;;;;;4948052;29;20079;-59
2024/01/12 07:00:19;;;;;;;12.70;4.10;;;;;;;;;;4965276;29;20039;-59
2024/01/12 07:02:45;;;;;;;15.68;4.03;;;;;;;;;;4966196;29;20027;-56
2024/01/12 07:05:10;;;;;;;19.60;4.43;;;;;;;;;;4967747;29;20040;-58
2024/01/12 07:07:36;;;;;;;16.67;4.23;;;;;;;;;;4959851;29;20270;-60
2024/01/12 07:10:01;;;;;;;13.77;3.70;;;;;;;;;;4959651;29;20032;-58
2024/01/12 07:12:27;;;;;;;26.57;4.73;;;;;;;;;;4959434;29;20031;-59
2024/01/12 07:14:52;;;;;;;11.80;4.63;;;;;;;;;;4967065;29;20254;-57
2024/01/12 07:17:18;;;;;;;12.30;4.63;;;;;;;;;;4959851;29;20038;-57
2024/01/12 07:19:43;;;;;;;20.53;5.53;;;;;;;;;;4966434;29;20027;-58
2024/01/12 07:22:09;;;;;;;13.63;5.00;;;;;;;;;;4943233;29;20278;-59
2024/01/12 07:24:34;;;;;;;21.20;5.30;;;;;;;;;;4964133;29;20059;-59
2024/01/12 07:26:59;;;;;;;26.77;5.67;;;;;;;;;;4959726;29;20032;-60
2024/01/12 07:29:25;;;;;;;14.88;5.88;;;;;;;;;;4959728;29;20031;-56
2024/01/12 07:31:51;;;;;;;18.93;5.20;;;;;;;;;;4960397;29;20052;-57
2024/01/12 07:34:17;;;;;;;18.53;6.03;;;;;;;;;;4945292;29;20063;-59
2024/01/12 07:36:43;;;;;;;21.70;5.63;;;;;;;;;;4959618;29;20254;-59
2024/01/12 07:39:08;;;;;;;20.33;6.07;;;;;;;;;;4959661;29;20051;-58
2024/01/12 07:41:33;;;;;;;20.33;6.20;;;;;;;;;;4970225;29;20023;-58
2024/01/12 07:43:59;;;;;;;22.30;5.67;;;;;;;;;;4942330;29;20035;-59
2024/01/12 07:46:25;;;;;;;13.57;4.60;;;;;;;;;;4959291;29;20059;-59
2024/01/12 07:48:51;;;;;;;26.47;6.87;;;;;;;;;;4958910;29;20047;-57
2024/01/12 07:51:17;;;;;;;15.23;6.05;;;;;;;;;;4967310;29;20043;-56
2024/01/12 07:53:43;;;;;;;15.70;6.77;;;;;;;;;;4967114;29;20046;-60
2024/01/12 07:56:11;;;;;;;18.83;6.07;;;;;;;;;;4962017;29;20031;-59
2024/01/12 07:58:37;;;;;;;21.05;6.18;;;;;;;;;;4958965;29;20321;-59
2024/01/12 08:01:05;;;;;;;25.15;6.78;;;;;;;;;;4964262;29;20063;-60
2024/01/12 08:03:31;;;;;;;12.82;6.20;;;;;;;;;;4964971;29;20039;-60
2024/01/12 08:05:56;;;;;;;18.03;6.93;;;;;;;;;;4960733;29;20027;-60
2024/01/12 08:08:22;;;;;;;20.08;6.93;;;;;;;;;;4958951;29;20070;-59
2024/01/12 08:10:48;;;;;;;20.50;6.83;;;;;;;;;;4963804;29;20036;-60
2024/01/12 08:13:13;;;;;;;20.70;6.50;;;;;;;;;;4959815;29;20031;-58
2024/01/12 08:15:39;;;;;;;19.13;6.73;;;;;;;;;;4958572;29;20269;-59
2024/01/12 08:18:04;;;;;;;13.43;7.03;;;;;;;;;;4958805;29;20072;-59
2024/01/12 08:20:30;;;;;;;22.67;7.07;;;;;;;;;;4964448;29;20091;-59
2024/01/12 08:22:56;;;;;;;21.77;6.70;;;;;;;;;;4965120;29;20040;-58
2024/01/12 08:25:23;;;;;;;22.90;6.57;;;;;;;;;;4960184;29;20095;-60
2024/01/12 08:27:48;;;;;;;21.02;8.13;;;;;;;;;;4958435;29;20039;-60
2024/01/12 08:30:14;;;;;;;22.70;8.80;;;;;;;;;;4960313;29;20082;-58
2024/01/12 08:32:39;;;;;;;24.00;8.40;;;;;;;;;;4958462;29;20030;-58
2024/01/12 08:35:05;;;;;;;42.63;17.30;;;;;;;;;;4969860;29;20330;-60
2024/01/12 08:37:30;;;;;;;25.90;9.75;;;;;;;;;;4958469;29;20095;-60
2024/01/12 08:39:56;;;;;;;24.87;7.97;;;;;;;;;;4965226;29;20046;-59
2024/01/12 08:42:21;;;;;;;21.03;7.90;;;;;;;;;;4958568;29;20294;-59
2024/01/12 08:44:47;;;;;;;16.43;6.57;;;;;;;;;;4964176;29;20034;-59
2024/01/12 08:47:12;;;;;;;15.97;7.03;;;;;;;;;;4958195;29;20032;-60
2024/01/12 08:49:37;;;;;;;18.87;7.00;;;;;;;;;;4957789;29;20075;-60
2024/01/12 08:52:02;;;;;;;23.27;6.63;;;;;;;;;;4962426;29;20027;-58
2024/01/12 08:54:28;;;;;;;19.02;5.75;;;;;;;;;;4964472;29;20153;-59
2024/01/12 08:56:53;;;;;;;22.00;8.00;;;;;;;;;;4957201;29;20036;-59
2024/01/12 08:59:20;;;;;;;18.60;7.77;;;;;;;;;;4957943;29;20519;-59
2024/01/12 09:01:46;;;;;;;18.27;6.80;;;;;;;;;;4959995;29;20052;-58
2024/01/12 09:04:11;;;;;;;25.60;9.27;;;;;;;;;;4959148;29;20044;-58
2024/01/12 09:06:36;;;;;;;14.18;6.28;;;;;;;;;;4957894;29;20030;-61
2024/01/12 09:09:03;;;;;;;28.45;6.60;;;;;;;;;;4957718;29;20071;-57
2024/01/12 09:11:28;;;;;;;21.92;6.40;;;;;;;;;;4945464;29;20123;-59
2024/01/12 09:13:54;;;;;;;17.57;6.90;;;;;;;;;;4962222;29;20028;-61
2024/01/12 09:16:19;;;;;;;22.03;7.40;;;;;;;;;;4956980;29;20054;-60
2024/01/12 09:18:45;;;;;;;23.33;6.50;;;;;;;;;;4940959;29;20100;-60
2024/01/12 09:21:15;;;;;;;19.87;7.00;;;;;;;;;;4964840;29;20273;-58
2024/01/12 09:23:46;;;;;;;19.10;6.97;;;;;;;;;;4962499;29;20121;-60
2024/01/12 09:26:11;;;;;;;17.15;6.05;;;;;;;;;;4940610;29;20036;-59
2024/01/12 09:28:37;;;;;;;15.45;5.53;;;;;;;;;;4956868;29;20095;-60
2024/01/12 09:31:03;;;;;;;21.33;5.32;;;;;;;;;;4942414;29;20027;-58
2024/01/12 09:33:30;;;;;;;13.38;6.40;;;;;;;;;;4957381;29;20079;-61
2024/01/12 09:35:56;;;;;;;10.75;5.55;;;;;;;;;;4956655;29;20035;-60
2024/01/12 09:38:21;;;;;;;14.70;5.37;;;;;;;;;;4957097;29;20051;-59
2024/01/12 09:40:48;;;;;;;20.07;5.50;;;;;;;;;;4958706;29;20028;-59
2024/01/12 09:43:14;;;;;;;16.60;5.65;;;;;;;;;;4961329;29;20046;-60
2024/01/12 09:45:42;;;;;;;16.67;5.75;;;;;;;;;;4959094;29;20028;-60
2024/01/12 09:48:08;;;;;;;15.32;4.50;;;;;;;;;;4957146;29;20046;-60
2024/01/12 09:50:34;;;;;;;15.75;4.82;;;;;;;;;;4953249;29;20040;-63
2024/01/12 09:52:59;;;;;;;16.83;5.30;;;;;;;;;;4959118;29;20790;-58
2024/01/12 09:55:25;;;;;;;14.85;5.47;;;;;;;;;;4957471;29;20083;-60
2024/01/12 09:57:50;;;;;;;13.87;4.47;;;;;;;;;;4956696;29;20032;-59
2024/01/12 10:00:17;;;;;;;11.88;4.57;;;;;;;;;;4939966;29;20095;-58
2024/01/12 10:02:43;;;;;;;16.63;5.40;;;;;;;;;;4964375;29;20060;-60
2024/01/12 10:05:08;;;;;;;17.87;6.80;;;;;;;;;;4957275;29;20057;-60
2024/01/12 10:07:34;;;;;;;15.70;4.87;;;;;;;;;;4956891;29;20024;-60
2024/01/12 10:09:59;;;;;;;15.00;5.07;;;;;;;;;;4960838;29;20035;-60
2024/01/12 10:12:25;;;;;;;16.55;5.03;;;;;;;;;;4939170;29;20027;-60
2024/01/12 10:15:04;;;;;;;15.03;5.27;;;;;;;;;;4960219;29;20042;-60
2024/01/12 10:17:30;;;;;;;15.43;5.18;;;;;;;;;;4956369;29;20051;-60
2024/01/12 10:19:55;;;;;;;17.75;5.82;;;;;;;;;;4956331;29;20058;-59
2024/01/12 10:22:21;;;;;;;15.30;6.23;;;;;;;;;;4958449;29;20153;-60
2024/01/12 10:24:46;;;;;;;15.83;5.03;;;;;;;;;;4958415;29;20036;-61
2024/01/12 10:27:12;;;;;;;18.30;5.17;;;;;;;;;;4956000;29;20059;-60
2024/01/12 10:29:38;;;;;;;10.68;4.68;;;;;;;;;;4958977;29;20035;-61
2024/01/12 10:32:06;;;;;;;17.43;5.50;;;;;;;;;;4932790;29;20059;-59
2024/01/12 10:34:35;;;;;;;17.02;5.20;;;;;;;;;;4959090;29;20055;-58
2024/01/12 10:37:02;;;;;;;15.13;5.57;;;;;;;;;;4956029;29;20091;-59
2024/01/12 10:39:29;;;;;;;13.95;5.38;;;;;;;;;;4955059;29;20036;-60
2024/01/12 10:41:57;;;;;;;16.27;6.47;;;;;;;;;;4955824;29;20059;-60
2024/01/12 10:44:23;;;;;;;11.18;5.72;;;;;;;;;;4960413;29;20046;-59
2024/01/12 10:46:50;;;;;;;15.65;5.88;;;;;;;;;;4955567;29;20046;-60
2024/01/12 10:49:15;;;;;;;;;;;;;;;;;;4956423;29;20054;-59
2024/01/12 10:51:49;;;;;;;11.53;5.23;;;;;;;;;;4960364;29;19911;-60
2024/01/12 10:54:18;;;;;;;16.95;5.22;;;;;;;;;;4964662;29;20055;-59
2024/01/12 10:56:44;;;;;;;21.33;5.55;;;;;;;;;;4950795;29;20036;-61
2024/01/12 10:59:11;;;;;;;;;;;;;;;;;;4956695;29;20032;-58
2024/01/12 11:01:37;;;;;;;13.07;5.22;;;;;;;;;;4960387;29;19946;-58
2024/01/12 11:04:04;;;;;;;19.87;4.87;;;;;;;;;;4962663;29;20038;-60
2024/01/12 11:06:30;;;;;;;21.00;6.40;;;;;;;;;;4960119;29;20266;-58
2024/01/12 11:08:56;;;;;;;21.10;7.07;;;;;;;;;;4955916;29;20050;-61
2024/01/12 11:11:26;;;;;;;17.17;7.28;;;;;;;;;;4942178;29;20031;-59
2024/01/12 11:13:51;;;;;;;19.35;5.70;;;;;;;;;;4959897;29;20094;-60
2024/01/12 11:16:18;;;;;;;13.77;5.30;;;;;;;;;;4956420;29;20031;-58
2024/01/12 11:18:47;;;;;;;18.42;6.07;;;;;;;;;;4956329;29;20281;-59
2024/01/12 11:21:12;;;;;;;17.67;6.10;;;;;;;;;;4953942;29;20075;-59
2024/01/12 11:23:41;;;;;;;23.47;5.87;;;;;;;;;;4961261;29;20103;-57
2024/01/12 11:26:07;;;;;;;19.25;6.40;;;;;;;;;;4968674;29;20040;-61
2024/01/12 11:28:37;;;;;;;14.07;5.47;;;;;;;;;;4955878;29;20047;-59
2024/01/12 11:31:02;;;;;;;21.13;5.55;;;;;;;;;;4963011;29;20028;-59
2024/01/12 11:33:28;;;;;;;25.92;6.10;;;;;;;;;;4968982;29;20039;-58
2024/01/12 11:35:54;;;;;;;;;;;;;;;;;;4955506;29;20062;-59
2024/01/12 11:38:20;;;;;;;13.87;5.70;;;;;;;;;;4958994;29;19911;-59
2024/01/12 11:40:48;;;;;;;16.40;5.27;;;;;;;;;;4942899;29;20123;-60
2024/01/12 11:43:19;;;;;;;19.80;6.32;;;;;;;;;;4960845;29;20425;-60
2024/01/12 11:45:46;;;;;;;20.33;6.30;;;;;;;;;;4961716;29;20088;-61
2024/01/12 11:48:15;;;;;;;12.73;5.13;;;;;;;;;;4958466;29;20036;-58
2024/01/12 11:50:43;;;;;;;20.58;4.88;;;;;;;;;;4962564;29;20529;-60
2024/01/12 11:53:11;;;;;;;16.98;5.82;;;;;;;;;;4963842;29;20036;-59
2024/01/12 11:55:39;;;;;;;15.45;4.80;;;;;;;;;;4962095;29;20043;-60
2024/01/12 11:58:04;;;;;;;17.08;4.68;;;;;;;;;;4963461;29;20027;-60
2024/01/12 12:00:30;;;;;;;21.07;5.63;;;;;;;;;;4958777;29;20051;-59
2024/01/12 12:02:55;;;;;;;14.70;6.60;;;;;;;;;;4965344;29;20091;-59
2024/01/12 12:05:21;;;;;;;17.13;6.37;;;;;;;;;;4958451;29;20262;-55
2024/01/12 12:07:46;;;;;;;13.95;5.57;;;;;;;;;;4958241;29;20068;-59
2024/01/12 12:10:12;;;;;;;17.27;5.67;;;;;;;;;;4958976;29;20087;-58
2024/01/12 12:12:37;;;;;;;15.43;5.20;;;;;;;;;;4968718;29;20031;-60
2024/01/12 12:15:07;;;;;;;16.77;6.13;;;;;;;;;;4954604;29;20032;-60
2024/01/12 12:17:36;;;;;;;21.52;5.65;;;;;;;;;;4958397;29;20293;-58
2024/01/12 12:20:03;;;;;;;15.57;5.90;;;;;;;;;;4958398;29;20043;-60
2024/01/12 12:22:30;;;;;;;19.95;5.68;;;;;;;;;;4968412;29;20046;-60
2024/01/12 12:24:55;;;;;;;21.30;6.57;;;;;;;;;;4959786;29;20039;-59
2024/01/12 12:27:20;;;;;;;21.33;6.60;;;;;;;;;;4965823;29;20050;-60
2024/01/12 12:29:46;;;;;;;18.45;5.63;;;;;;;;;;4952569;29;20064;-59
2024/01/12 12:32:12;;;;;;;13.43;3.97;;;;;;;;;;4950294;29;20062;-59
2024/01/12 12:34:41;;;;;;;14.80;4.13;;;;;;;;;;4965898;29;20039;-59
2024/01/12 12:37:10;;;;;;;20.63;5.07;;;;;;;;;;4957970;29;20024;-59
2024/01/12 12:39:36;;;;;;;28.77;5.20;;;;;;;;;;4960370;29;20039;-59
2024/01/12 12:42:03;;;;;;;14.73;5.03;;;;;;;;;;4968260;29;20052;-58
2024/01/12 12:44:28;;;;;;;;;;;;;;;;;;4960545;29;20034;-57
2024/01/12 12:46:54;;;;;;;17.43;3.83;;;;;;;;;;4940625;29;19911;-60
2024/01/12 12:49:19;;;;;;;18.20;4.53;;;;;;;;;;4956849;29;20067;-59
2024/01/12 12:51:44;;;;;;;14.47;3.57;;;;;;;;;;4965486;29;20028;-58
2024/01/12 12:54:10;;;;;;;18.13;4.33;;;;;;;;;;4957387;29;20032;-60
2024/01/12 12:56:35;;;;;;;19.50;4.60;;;;;;;;;;4942515;29;20046;-59
2024/01/12 12:59:00;;;;;;;12.97;5.20;;;;;;;;;;4957312;29;20039;-60
2024/01/12 13:01:26;;;;;;;20.17;4.05;;;;;;;;;;4956946;29;20609;-58
2024/01/12 13:03:52;;;;;;;10.47;4.37;;;;;;;;;;4960908;29;20035;-58
2024/01/12 13:06:17;;;;;;;24.17;5.40;;;;;;;;;;4960913;29;20296;-59
2024/01/12 13:08:43;;;;;;;16.00;3.93;;;;;;;;;;4963222;29;20038;-58
2024/01/12 13:11:09;;;;;;;11.40;4.17;;;;;;;;;;4957476;29;20051;-60
2024/01/12 13:13:34;;;;;;;10.55;2.67;;;;;;;;;;4964034;29;20253;-58
2024/01/12 13:16:02;;;;;;;15.00;3.10;;;;;;;;;;4969544;29;20052;-58
2024/01/12 13:18:27;;;;;;;17.70;3.78;;;;;;;;;;4958139;29;20050;-61
2024/01/12 13:20:52;;;;;;;11.63;4.33;;;;;;;;;;4942331;29;20019;-59
2024/01/12 13:23:19;;;;;;;12.63;3.13;;;;;;;;;;4960680;29;20058;-61
2024/01/12 13:25:44;;;;;;;10.05;2.58;;;;;;;;;;4956510;29;20034;-60
2024/01/12 13:28:10;;;;;;;15.27;3.38;;;;;;;;;;4956929;29;20027;-60
2024/01/12 13:30:35;;;;;;;14.90;3.50;;;;;;;;;;4963164;29;20071;-58
2024/01/12 13:33:01;;;;;;;10.37;3.03;;;;;;;;;;4973024;29;20455;-59
2024/01/12 13:35:27;;;;;;;13.10;4.30;;;;;;;;;;4956624;29;20035;-59
2024/01/12 13:37:53;;;;;;;20.03;5.10;;;;;;;;;;4956516;29;20038;-58
2024/01/12 13:40:19;;;;;;;9.60;3.00;;;;;;;;;;4965835;29;20043;-59
2024/01/12 13:42:45;;;;;;;9.83;2.70;;;;;;;;;;4960706;29;20039;-60
2024/01/12 13:45:10;;;;;;;15.32;4.25;;;;;;;;;;4969454;29;20046;-58
2024/01/12 13:47:36;;;;;;;12.23;2.57;;;;;;;;;;4969228;29;20043;-58
2024/01/12 13:50:01;;;;;;;8.70;2.70;;;;;;;;;;4955239;29;20286;-60
2024/01/12 13:52:27;;;;;;;10.20;2.25;;;;;;;;;;4960812;29;20027;-59
2024/01/12 13:54:53;;;;;;;14.30;2.80;;;;;;;;;;4961528;29;20295;-57
2024/01/12 13:57:18;;;;;;;14.50;2.40;;;;;;;;;;4941634;29;20293;-58
2024/01/12 13:59:44;;;;;;;13.55;2.90;;;;;;;;;;4963195;29;20060;-59
2024/01/12 14:02:09;;;;;;;6.73;2.17;;;;;;;;;;4957632;29;20039;-60
2024/01/12 14:04:34;;;;;;;9.43;3.03;;;;;;;;;;4961531;29;20078;-60
2024/01/12 14:07:00;;;;;;;10.70;3.10;;;;;;;;;;4957410;29;20046;-58
2024/01/12 14:09:26;;;;;;;10.60;2.95;;;;;;;;;;4956318;29;20036;-62
2024/01/12 14:11:52;;;;;;;14.48;2.85;;;;;;;;;;4960598;29;20061;-60
2024/01/12 14:14:17;;;;;;;7.90;2.97;;;;;;;;;;4958826;29;20051;-58
2024/01/12 14:16:43;;;;;;;13.60;2.30;;;;;;;;;;4964764;29;20031;-58
2024/01/12 14:19:08;;;;;;;16.00;2.20;;;;;;;;;;4956589;29;20330;-59
2024/01/12 14:21:34;;;;;;;13.67;2.83;;;;;;;;;;4956836;29;20133;-59